sensor_id;sensor_type;location;lat;lon;timestamp;P1;durP1;ratioP1;P2;durP2;ratioP2
75496;SDS011;64074;47.540;19.072;2023-05-10T00:01:17;4.60;;;2.35;;
75496;SDS011;64074;47.540;19.072;2023-05-10T00:04:36;3.53;;;2.40;;
75496;SDS011;64074;47.540;19.072;2023-05-10T00:07:58;3.20;;;2.20;;
75496;SDS011;64074;47.540;19.072;2023-05-10T00:11:23;2.90;;;2.17;;
75496;SDS011;64074;47.540;19.072;2023-05-10T00:14:43;7.35;;;2.20;;
75496;SDS011;64074;47.540;19.072;2023-05-10T00:18:10;3.92;;;2.40;;
75496;SDS011;64074;47.540;19.072;2023-05-10T00:21:39;3.25;;;2.75;;
75496;SDS011;64074;47.540;19.072;2023-05-10T00:25:26;2.85;;;2.40;;
75496;SDS011;64074;47.540;19.072;2023-05-10T00:28:59;5.97;;;2.80;;
75496;SDS011;64074;47.540;19.072;2023-05-10T00:32:25;3.75;;;2.42;;
75496;SDS011;64074;47.540;19.072;2023-05-10T00:35:56;5.05;;;2.83;;
75496;SDS011;64074;47.540;19.072;2023-05-10T00:39:23;3.05;;;2.45;;
75496;SDS011;64074;47.540;19.072;2023-05-10T00:42:53;4.10;;;2.50;;
75496;SDS011;64074;47.540;19.072;2023-05-10T00:46:23;3.60;;;2.53;;
75496;SDS011;64074;47.540;19.072;2023-05-10T00:50:02;5.07;;;2.80;;
75496;SDS011;64074;47.540;19.072;2023-05-10T00:53:28;4.68;;;2.70;;
75496;SDS011;64074;47.540;19.072;2023-05-10T00:56:53;4.55;;;2.90;;
75496;SDS011;64074;47.540;19.072;2023-05-10T01:00:24;4.18;;;2.90;;
75496;SDS011;64074;47.540;19.072;2023-05-10T01:03:55;5.13;;;2.93;;
75496;SDS011;64074;47.540;19.072;2023-05-10T01:07:35;4.05;;;3.00;;
75496;SDS011;64074;47.540;19.072;2023-05-10T01:11:02;4.75;;;3.20;;
75496;SDS011;64074;47.540;19.072;2023-05-10T01:14:36;5.35;;;3.10;;
75496;SDS011;64074;47.540;19.072;2023-05-10T01:18:00;5.53;;;3.20;;
75496;SDS011;64074;47.540;19.072;2023-05-10T01:21:33;5.07;;;3.30;;
75496;SDS011;64074;47.540;19.072;2023-05-10T01:28:39;6.22;;;3.65;;
75496;SDS011;64074;47.540;19.072;2023-05-10T01:32:23;13.38;;;3.47;;
75496;SDS011;64074;47.540;19.072;2023-05-10T01:39:24;6.30;;;3.20;;
75496;SDS011;64074;47.540;19.072;2023-05-10T01:43:04;5.07;;;3.17;;
75496;SDS011;64074;47.540;19.072;2023-05-10T01:46:41;5.03;;;3.03;;
75496;SDS011;64074;47.540;19.072;2023-05-10T01:50:06;5.30;;;2.92;;
75496;SDS011;64074;47.540;19.072;2023-05-10T01:53:32;4.57;;;3.00;;
75496;SDS011;64074;47.540;19.072;2023-05-10T01:57:01;6.90;;;3.30;;
75496;SDS011;64074;47.540;19.072;2023-05-10T02:00:18;5.28;;;3.25;;
75496;SDS011;64074;47.540;19.072;2023-05-10T02:03:34;5.28;;;3.50;;
75496;SDS011;64074;47.540;19.072;2023-05-10T02:06:58;4.35;;;3.35;;
75496;SDS011;64074;47.540;19.072;2023-05-10T02:10:18;5.20;;;3.50;;
75496;SDS011;64074;47.540;19.072;2023-05-10T02:13:41;4.60;;;3.07;;
75496;SDS011;64074;47.540;19.072;2023-05-10T02:17:08;4.68;;;3.10;;
75496;SDS011;64074;47.540;19.072;2023-05-10T02:20:33;5.32;;;3.50;;
75496;SDS011;64074;47.540;19.072;2023-05-10T02:24:00;4.65;;;3.38;;
75496;SDS011;64074;47.540;19.072;2023-05-10T02:27:40;5.93;;;3.03;;
75496;SDS011;64074;47.540;19.072;2023-05-10T02:31:21;4.27;;;2.90;;
75496;SDS011;64074;47.540;19.072;2023-05-10T02:34:34;3.92;;;3.15;;
75496;SDS011;64074;47.540;19.072;2023-05-10T02:38:08;7.88;;;3.40;;
75496;SDS011;64074;47.540;19.072;2023-05-10T02:41:33;5.20;;;3.70;;
75496;SDS011;64074;47.540;19.072;2023-05-10T02:44:52;5.47;;;3.22;;
75496;SDS011;64074;47.540;19.072;2023-05-10T02:48:25;4.37;;;3.30;;
75496;SDS011;64074;47.540;19.072;2023-05-10T02:51:55;4.43;;;3.33;;
75496;SDS011;64074;47.540;19.072;2023-05-10T02:55:35;6.40;;;3.83;;
75496;SDS011;64074;47.540;19.072;2023-05-10T02:59:06;5.03;;;3.30;;
75496;SDS011;64074;47.540;19.072;2023-05-10T03:02:28;4.70;;;3.40;;
75496;SDS011;64074;47.540;19.072;2023-05-10T03:05:57;5.30;;;3.30;;
75496;SDS011;64074;47.540;19.072;2023-05-10T03:09:20;5.18;;;3.35;;
75496;SDS011;64074;47.540;19.072;2023-05-10T03:13:01;4.90;;;3.33;;
75496;SDS011;64074;47.540;19.072;2023-05-10T03:16:46;4.30;;;3.33;;
75496;SDS011;64074;47.540;19.072;2023-05-10T03:20:24;7.72;;;3.70;;
75496;SDS011;64074;47.540;19.072;2023-05-10T03:23:50;5.07;;;3.50;;
75496;SDS011;64074;47.540;19.072;2023-05-10T03:27:48;5.00;;;3.70;;
75496;SDS011;64074;47.540;19.072;2023-05-10T03:31:09;7.13;;;3.72;;
75496;SDS011;64074;47.540;19.072;2023-05-10T03:34:29;6.75;;;3.50;;
75496;SDS011;64074;47.540;19.072;2023-05-10T03:37:47;7.13;;;3.80;;
75496;SDS011;64074;47.540;19.072;2023-05-10T03:40:58;9.60;;;3.40;;
75496;SDS011;64074;47.540;19.072;2023-05-10T03:44:26;4.78;;;3.78;;
75496;SDS011;64074;47.540;19.072;2023-05-10T03:48:06;5.25;;;3.70;;
75496;SDS011;64074;47.540;19.072;2023-05-10T03:51:28;5.20;;;4.03;;
75496;SDS011;64074;47.540;19.072;2023-05-10T03:54:47;5.32;;;4.00;;
75496;SDS011;64074;47.540;19.072;2023-05-10T03:58:10;5.57;;;3.83;;
75496;SDS011;64074;47.540;19.072;2023-05-10T04:01:34;7.80;;;4.25;;
75496;SDS011;64074;47.540;19.072;2023-05-10T04:05:06;6.20;;;3.80;;
75496;SDS011;64074;47.540;19.072;2023-05-10T04:08:27;6.65;;;3.65;;
75496;SDS011;64074;47.540;19.072;2023-05-10T04:11:50;7.82;;;4.63;;
75496;SDS011;64074;47.540;19.072;2023-05-10T04:15:13;8.73;;;3.77;;
75496;SDS011;64074;47.540;19.072;2023-05-10T04:18:54;21.05;;;5.10;;
75496;SDS011;64074;47.540;19.072;2023-05-10T04:22:31;9.77;;;3.95;;
75496;SDS011;64074;47.540;19.072;2023-05-10T04:26:04;5.30;;;4.03;;
75496;SDS011;64074;47.540;19.072;2023-05-10T04:29:37;6.43;;;3.70;;
75496;SDS011;64074;47.540;19.072;2023-05-10T04:33:01;9.50;;;4.80;;
75496;SDS011;64074;47.540;19.072;2023-05-10T04:36:39;6.82;;;3.83;;
75496;SDS011;64074;47.540;19.072;2023-05-10T04:40:16;7.75;;;4.40;;
75496;SDS011;64074;47.540;19.072;2023-05-10T04:43:45;6.57;;;4.60;;
75496;SDS011;64074;47.540;19.072;2023-05-10T04:47:05;7.00;;;4.72;;
75496;SDS011;64074;47.540;19.072;2023-05-10T04:50:29;30.33;;;5.63;;
75496;SDS011;64074;47.540;19.072;2023-05-10T04:53:39;7.70;;;4.78;;
75496;SDS011;64074;47.540;19.072;2023-05-10T04:56:56;8.35;;;4.57;;
75496;SDS011;64074;47.540;19.072;2023-05-10T05:00:33;10.05;;;5.15;;
75496;SDS011;64074;47.540;19.072;2023-05-10T05:03:50;6.28;;;4.35;;
75496;SDS011;64074;47.540;19.072;2023-05-10T05:07:17;9.07;;;4.70;;
75496;SDS011;64074;47.540;19.072;2023-05-10T05:10:49;7.35;;;4.20;;
75496;SDS011;64074;47.540;19.072;2023-05-10T05:14:14;7.22;;;4.68;;
75496;SDS011;64074;47.540;19.072;2023-05-10T05:17:44;11.50;;;5.20;;
75496;SDS011;64074;47.540;19.072;2023-05-10T05:21:21;5.95;;;4.50;;
75496;SDS011;64074;47.540;19.072;2023-05-10T05:24:51;7.03;;;4.67;;
75496;SDS011;64074;47.540;19.072;2023-05-10T05:28:17;11.82;;;5.15;;
75496;SDS011;64074;47.540;19.072;2023-05-10T05:31:30;12.23;;;5.47;;
75496;SDS011;64074;47.540;19.072;2023-05-10T05:34:41;11.77;;;5.28;;
75496;SDS011;64074;47.540;19.072;2023-05-10T05:38:06;8.82;;;5.00;;
75496;SDS011;64074;47.540;19.072;2023-05-10T05:41:15;8.37;;;4.90;;
75496;SDS011;64074;47.540;19.072;2023-05-10T05:44:23;8.30;;;4.93;;
75496;SDS011;64074;47.540;19.072;2023-05-10T05:47:33;9.25;;;5.10;;
75496;SDS011;64074;47.540;19.072;2023-05-10T05:50:43;9.93;;;4.60;;
75496;SDS011;64074;47.540;19.072;2023-05-10T05:53:59;10.30;;;5.40;;
75496;SDS011;64074;47.540;19.072;2023-05-10T05:57:29;7.07;;;4.70;;
75496;SDS011;64074;47.540;19.072;2023-05-10T06:00:51;7.00;;;5.15;;
75496;SDS011;64074;47.540;19.072;2023-05-10T06:04:02;8.13;;;5.40;;
75496;SDS011;64074;47.540;19.072;2023-05-10T06:07:32;8.98;;;5.10;;
75496;SDS011;64074;47.540;19.072;2023-05-10T06:10:38;11.40;;;5.35;;
75496;SDS011;64074;47.540;19.072;2023-05-10T06:13:55;7.50;;;5.03;;
75496;SDS011;64074;47.540;19.072;2023-05-10T06:17:43;6.20;;;4.70;;
75496;SDS011;64074;47.540;19.072;2023-05-10T06:21:11;7.22;;;5.18;;
75496;SDS011;64074;47.540;19.072;2023-05-10T06:24:41;8.68;;;5.03;;
75496;SDS011;64074;47.540;19.072;2023-05-10T06:27:57;14.98;;;9.00;;
75496;SDS011;64074;47.540;19.072;2023-05-10T06:31:14;10.63;;;6.07;;
75496;SDS011;64074;47.540;19.072;2023-05-10T06:34:40;10.63;;;5.45;;
75496;SDS011;64074;47.540;19.072;2023-05-10T06:37:59;6.28;;;4.70;;
75496;SDS011;64074;47.540;19.072;2023-05-10T06:41:21;6.88;;;5.10;;
75496;SDS011;64074;47.540;19.072;2023-05-10T06:44:42;7.15;;;5.05;;
75496;SDS011;64074;47.540;19.072;2023-05-10T06:47:53;10.27;;;5.07;;
75496;SDS011;64074;47.540;19.072;2023-05-10T06:51:17;8.27;;;5.30;;
75496;SDS011;64074;47.540;19.072;2023-05-10T06:54:56;7.43;;;5.43;;
75496;SDS011;64074;47.540;19.072;2023-05-10T06:58:12;10.25;;;5.00;;
75496;SDS011;64074;47.540;19.072;2023-05-10T07:01:38;7.93;;;5.40;;
75496;SDS011;64074;47.540;19.072;2023-05-10T07:04:54;7.80;;;5.27;;
75496;SDS011;64074;47.540;19.072;2023-05-10T07:08:20;7.93;;;4.85;;
75496;SDS011;64074;47.540;19.072;2023-05-10T07:11:28;7.93;;;5.57;;
75496;SDS011;64074;47.540;19.072;2023-05-10T07:14:44;6.93;;;5.65;;
75496;SDS011;64074;47.540;19.072;2023-05-10T07:18:13;8.50;;;4.95;;
75496;SDS011;64074;47.540;19.072;2023-05-10T07:21:47;8.90;;;4.87;;
75496;SDS011;64074;47.540;19.072;2023-05-10T07:24:58;9.02;;;5.18;;
75496;SDS011;64074;47.540;19.072;2023-05-10T07:28:14;7.45;;;5.30;;
75496;SDS011;64074;47.540;19.072;2023-05-10T07:31:29;7.13;;;4.90;;
75496;SDS011;64074;47.540;19.072;2023-05-10T07:35:00;6.10;;;5.05;;
75496;SDS011;64074;47.540;19.072;2023-05-10T07:38:25;6.70;;;4.90;;
75496;SDS011;64074;47.540;19.072;2023-05-10T07:41:42;9.20;;;4.95;;
75496;SDS011;64074;47.540;19.072;2023-05-10T07:44:57;10.65;;;5.05;;
75496;SDS011;64074;47.540;19.072;2023-05-10T07:48:16;7.82;;;4.53;;
75496;SDS011;64074;47.540;19.072;2023-05-10T07:51:37;8.75;;;4.68;;
75496;SDS011;64074;47.540;19.072;2023-05-10T07:54:53;6.80;;;4.43;;
75496;SDS011;64074;47.540;19.072;2023-05-10T07:58:07;9.90;;;4.47;;
75496;SDS011;64074;47.540;19.072;2023-05-10T08:01:31;11.63;;;5.43;;
75496;SDS011;64074;47.540;19.072;2023-05-10T08:04:40;6.75;;;3.83;;
75496;SDS011;64074;47.540;19.072;2023-05-10T08:07:58;8.60;;;4.20;;
75496;SDS011;64074;47.540;19.072;2023-05-10T08:11:09;6.37;;;4.63;;
75496;SDS011;64074;47.540;19.072;2023-05-10T08:14:20;6.53;;;4.57;;
75496;SDS011;64074;47.540;19.072;2023-05-10T08:17:53;7.55;;;3.80;;
75496;SDS011;64074;47.540;19.072;2023-05-10T08:21:05;5.45;;;3.90;;
75496;SDS011;64074;47.540;19.072;2023-05-10T08:24:15;12.77;;;4.25;;
75496;SDS011;64074;47.540;19.072;2023-05-10T08:27:25;6.37;;;3.80;;
75496;SDS011;64074;47.540;19.072;2023-05-10T08:30:35;7.57;;;4.13;;
75496;SDS011;64074;47.540;19.072;2023-05-10T08:34:29;5.93;;;3.90;;
75496;SDS011;64074;47.540;19.072;2023-05-10T08:37:42;5.65;;;3.78;;
75496;SDS011;64074;47.540;19.072;2023-05-10T08:40:54;5.00;;;3.70;;
75496;SDS011;64074;47.540;19.072;2023-05-10T08:44:27;5.10;;;3.90;;
75496;SDS011;64074;47.540;19.072;2023-05-10T08:47:41;4.88;;;4.10;;
75496;SDS011;64074;47.540;19.072;2023-05-10T08:51:19;4.95;;;3.95;;
75496;SDS011;64074;47.540;19.072;2023-05-10T08:54:38;7.40;;;3.97;;
75496;SDS011;64074;47.540;19.072;2023-05-10T08:58:01;5.13;;;3.80;;
75496;SDS011;64074;47.540;19.072;2023-05-10T09:01:07;9.20;;;3.53;;
75496;SDS011;64074;47.540;19.072;2023-05-10T09:04:21;5.50;;;3.95;;
75496;SDS011;64074;47.540;19.072;2023-05-10T09:08:01;5.95;;;3.97;;
75496;SDS011;64074;47.540;19.072;2023-05-10T09:11:26;7.50;;;3.67;;
75496;SDS011;64074;47.540;19.072;2023-05-10T09:14:49;9.27;;;4.00;;
75496;SDS011;64074;47.540;19.072;2023-05-10T09:18:13;6.77;;;3.77;;
75496;SDS011;64074;47.540;19.072;2023-05-10T09:21:25;5.40;;;3.63;;
75496;SDS011;64074;47.540;19.072;2023-05-10T09:28:55;4.88;;;4.13;;
75496;SDS011;64074;47.540;19.072;2023-05-10T09:32:01;6.28;;;3.40;;
75496;SDS011;64074;47.540;19.072;2023-05-10T09:35:13;4.87;;;3.83;;
75496;SDS011;64074;47.540;19.072;2023-05-10T09:38:26;6.35;;;3.80;;
75496;SDS011;64074;47.540;19.072;2023-05-10T09:41:38;4.80;;;4.05;;
75496;SDS011;64074;47.540;19.072;2023-05-10T09:45:10;4.10;;;3.60;;
75496;SDS011;64074;47.540;19.072;2023-05-10T09:48:23;5.50;;;4.13;;
75496;SDS011;64074;47.540;19.072;2023-05-10T09:51:34;6.47;;;4.70;;
75496;SDS011;64074;47.540;19.072;2023-05-10T09:54:45;4.65;;;3.95;;
75496;SDS011;64074;47.540;19.072;2023-05-10T09:58:03;8.85;;;4.38;;
75496;SDS011;64074;47.540;19.072;2023-05-10T10:01:21;5.10;;;3.85;;
75496;SDS011;64074;47.540;19.072;2023-05-10T10:04:42;9.88;;;4.80;;
75496;SDS011;64074;47.540;19.072;2023-05-10T10:07:58;4.67;;;3.43;;
75496;SDS011;64074;47.540;19.072;2023-05-10T10:11:05;8.00;;;5.45;;
75496;SDS011;64074;47.540;19.072;2023-05-10T10:14:18;8.60;;;5.50;;
75496;SDS011;64074;47.540;19.072;2023-05-10T10:21:13;5.28;;;3.10;;
75496;SDS011;64074;47.540;19.072;2023-05-10T10:25:19;4.40;;;3.03;;
75496;SDS011;64074;47.540;19.072;2023-05-10T10:36:05;6.78;;;2.95;;
75496;SDS011;64074;47.540;19.072;2023-05-10T10:39:20;5.15;;;3.00;;
75496;SDS011;64074;47.540;19.072;2023-05-10T10:42:44;3.33;;;2.97;;
75496;SDS011;64074;47.540;19.072;2023-05-10T10:46:10;6.22;;;2.88;;
75496;SDS011;64074;47.540;19.072;2023-05-10T10:49:28;4.70;;;3.10;;
75496;SDS011;64074;47.540;19.072;2023-05-10T10:52:52;4.85;;;2.85;;
75496;SDS011;64074;47.540;19.072;2023-05-10T10:56:06;2.78;;;2.58;;
75496;SDS011;64074;47.540;19.072;2023-05-10T10:59:28;4.73;;;2.60;;
75496;SDS011;64074;47.540;19.072;2023-05-10T11:03:15;6.97;;;3.15;;
75496;SDS011;64074;47.540;19.072;2023-05-10T11:08:34;5.03;;;2.78;;
75496;SDS011;64074;47.540;19.072;2023-05-10T11:11:59;4.72;;;2.30;;
75496;SDS011;64074;47.540;19.072;2023-05-10T11:15:08;3.47;;;2.30;;
75496;SDS011;64074;47.540;19.072;2023-05-10T11:18:20;7.20;;;2.50;;
75496;SDS011;64074;47.540;19.072;2023-05-10T11:21:51;4.68;;;2.50;;
75496;SDS011;64074;47.540;19.072;2023-05-10T11:25:11;5.13;;;2.60;;
75496;SDS011;64074;47.540;19.072;2023-05-10T11:28:19;3.33;;;2.33;;
75496;SDS011;64074;47.540;19.072;2023-05-10T11:31:34;4.20;;;2.42;;
75496;SDS011;64074;47.540;19.072;2023-05-10T11:34:47;8.90;;;3.20;;
75496;SDS011;64074;47.540;19.072;2023-05-10T11:37:52;3.22;;;2.60;;
75496;SDS011;64074;47.540;19.072;2023-05-10T11:41:08;2.90;;;2.15;;
75496;SDS011;64074;47.540;19.072;2023-05-10T11:44:31;4.07;;;2.22;;
75496;SDS011;64074;47.540;19.072;2023-05-10T11:47:48;5.85;;;2.20;;
75496;SDS011;64074;47.540;19.072;2023-05-10T11:51:00;2.80;;;2.03;;
75496;SDS011;64074;47.540;19.072;2023-05-10T11:54:27;3.72;;;2.28;;
75496;SDS011;64074;47.540;19.072;2023-05-10T11:57:44;3.80;;;2.47;;
75496;SDS011;64074;47.540;19.072;2023-05-10T12:00:59;3.67;;;2.30;;
75496;SDS011;64074;47.540;19.072;2023-05-10T12:04:22;6.32;;;2.35;;
75496;SDS011;64074;47.540;19.072;2023-05-10T12:07:33;6.87;;;2.50;;
75496;SDS011;64074;47.540;19.072;2023-05-10T12:11:07;2.92;;;2.40;;
75496;SDS011;64074;47.540;19.072;2023-05-10T12:14:26;2.40;;;2.20;;
75496;SDS011;64074;47.540;19.072;2023-05-10T12:17:51;2.75;;;2.15;;
75496;SDS011;64074;47.540;19.072;2023-05-10T12:21:02;4.75;;;2.35;;
75496;SDS011;64074;47.540;19.072;2023-05-10T12:24:34;1.90;;;1.80;;
75496;SDS011;64074;47.540;19.072;2023-05-10T12:27:53;4.30;;;2.10;;
75496;SDS011;64074;47.540;19.072;2023-05-10T12:31:06;4.88;;;2.17;;
75496;SDS011;64074;47.540;19.072;2023-05-10T12:34:22;4.13;;;2.40;;
75496;SDS011;64074;47.540;19.072;2023-05-10T12:37:32;3.78;;;2.30;;
75496;SDS011;64074;47.540;19.072;2023-05-10T12:40:46;5.57;;;2.10;;
75496;SDS011;64074;47.540;19.072;2023-05-10T12:43:57;3.08;;;2.35;;
75496;SDS011;64074;47.540;19.072;2023-05-10T12:47:08;2.58;;;2.30;;
75496;SDS011;64074;47.540;19.072;2023-05-10T12:50:23;4.93;;;1.83;;
75496;SDS011;64074;47.540;19.072;2023-05-10T12:53:28;3.35;;;2.00;;
75496;SDS011;64074;47.540;19.072;2023-05-10T12:56:37;3.20;;;2.00;;
75496;SDS011;64074;47.540;19.072;2023-05-10T12:59:50;3.17;;;1.70;;
75496;SDS011;64074;47.540;19.072;2023-05-10T13:03:26;4.07;;;2.08;;
75496;SDS011;64074;47.540;19.072;2023-05-10T13:06:40;6.18;;;2.22;;
75496;SDS011;64074;47.540;19.072;2023-05-10T13:10:07;3.30;;;2.40;;
75496;SDS011;64074;47.540;19.072;2023-05-10T13:13:28;6.93;;;2.30;;
75496;SDS011;64074;47.540;19.072;2023-05-10T13:16:53;4.60;;;2.33;;
75496;SDS011;64074;47.540;19.072;2023-05-10T13:20:12;3.50;;;2.17;;
75496;SDS011;64074;47.540;19.072;2023-05-10T13:23:19;3.85;;;1.83;;
75496;SDS011;64074;47.540;19.072;2023-05-10T13:26:32;8.98;;;1.70;;
75496;SDS011;64074;47.540;19.072;2023-05-10T13:29:46;3.53;;;1.90;;
75496;SDS011;64074;47.540;19.072;2023-05-10T13:33:07;6.38;;;2.10;;
75496;SDS011;64074;47.540;19.072;2023-05-10T13:36:42;3.35;;;1.70;;
75496;SDS011;64074;47.540;19.072;2023-05-10T13:39:53;5.03;;;2.22;;
75496;SDS011;64074;47.540;19.072;2023-05-10T13:43:13;3.72;;;2.40;;
75496;SDS011;64074;47.540;19.072;2023-05-10T13:46:32;5.60;;;2.47;;
75496;SDS011;64074;47.540;19.072;2023-05-10T13:49:55;3.50;;;2.00;;
75496;SDS011;64074;47.540;19.072;2023-05-10T13:53:16;3.40;;;2.50;;
75496;SDS011;64074;47.540;19.072;2023-05-10T13:56:30;3.67;;;1.60;;
75496;SDS011;64074;47.540;19.072;2023-05-10T13:59:58;2.50;;;1.80;;
75496;SDS011;64074;47.540;19.072;2023-05-10T14:03:15;2.97;;;1.70;;
75496;SDS011;64074;47.540;19.072;2023-05-10T14:11:30;5.00;;;1.90;;
75496;SDS011;64074;47.540;19.072;2023-05-10T14:15:14;6.30;;;1.80;;
75496;SDS011;64074;47.540;19.072;2023-05-10T14:18:37;6.70;;;2.60;;
75496;SDS011;64074;47.540;19.072;2023-05-10T14:21:49;3.83;;;2.20;;
75496;SDS011;64074;47.540;19.072;2023-05-10T14:25:16;3.97;;;2.60;;
75496;SDS011;64074;47.540;19.072;2023-05-10T14:28:34;3.58;;;2.10;;
75496;SDS011;64074;47.540;19.072;2023-05-10T14:32:02;7.20;;;2.53;;
75496;SDS011;64074;47.540;19.072;2023-05-10T14:35:17;2.60;;;1.70;;
75496;SDS011;64074;47.540;19.072;2023-05-10T14:38:30;2.70;;;2.20;;
75496;SDS011;64074;47.540;19.072;2023-05-10T14:42:08;3.58;;;2.30;;
75496;SDS011;64074;47.540;19.072;2023-05-10T14:45:19;4.53;;;1.60;;
75496;SDS011;64074;47.540;19.072;2023-05-10T14:48:51;3.97;;;1.90;;
75496;SDS011;64074;47.540;19.072;2023-05-10T14:52:07;4.78;;;1.90;;
75496;SDS011;64074;47.540;19.072;2023-05-10T14:56:37;1.63;;;1.37;;
75496;SDS011;64074;47.540;19.072;2023-05-10T15:00:12;1.73;;;1.50;;
75496;SDS011;64074;47.540;19.072;2023-05-10T15:03:26;4.43;;;1.70;;
75496;SDS011;64074;47.540;19.072;2023-05-10T15:06:36;3.08;;;1.40;;
75496;SDS011;64074;47.540;19.072;2023-05-10T15:14:03;5.13;;;1.20;;
75496;SDS011;64074;47.540;19.072;2023-05-10T15:17:30;2.05;;;1.30;;
75496;SDS011;64074;47.540;19.072;2023-05-10T15:20:56;4.45;;;1.40;;
75496;SDS011;64074;47.540;19.072;2023-05-10T15:24:12;1.48;;;1.35;;
75496;SDS011;64074;47.540;19.072;2023-05-10T15:27:29;3.97;;;1.20;;
75496;SDS011;64074;47.540;19.072;2023-05-10T15:30:35;1.60;;;1.50;;
75496;SDS011;64074;47.540;19.072;2023-05-10T15:33:45;2.70;;;1.30;;
75496;SDS011;64074;47.540;19.072;2023-05-10T15:36:56;1.40;;;1.27;;
75496;SDS011;64074;47.540;19.072;2023-05-10T15:40:12;2.70;;;1.52;;
75496;SDS011;64074;47.540;19.072;2023-05-10T15:43:35;18.08;;;16.13;;
75496;SDS011;64074;47.540;19.072;2023-05-10T15:46:50;2.10;;;1.40;;
75496;SDS011;64074;47.540;19.072;2023-05-10T15:50:17;3.55;;;1.73;;
75496;SDS011;64074;47.540;19.072;2023-05-10T15:53:24;3.45;;;1.80;;
75496;SDS011;64074;47.540;19.072;2023-05-10T15:56:29;4.72;;;1.40;;
75496;SDS011;64074;47.540;19.072;2023-05-10T15:59:32;2.63;;;1.65;;
75496;SDS011;64074;47.540;19.072;2023-05-10T16:02:44;2.47;;;1.70;;
75496;SDS011;64074;47.540;19.072;2023-05-10T16:06:08;2.67;;;1.70;;
75496;SDS011;64074;47.540;19.072;2023-05-10T16:09:45;5.70;;;1.98;;
75496;SDS011;64074;47.540;19.072;2023-05-10T16:13:07;2.83;;;1.77;;
75496;SDS011;64074;47.540;19.072;2023-05-10T16:16:30;1.70;;;1.58;;
75496;SDS011;64074;47.540;19.072;2023-05-10T16:19:49;1.83;;;1.30;;
75496;SDS011;64074;47.540;19.072;2023-05-10T16:23:22;2.20;;;1.40;;
75496;SDS011;64074;47.540;19.072;2023-05-10T16:26:38;4.25;;;1.60;;
75496;SDS011;64074;47.540;19.072;2023-05-10T16:30:12;2.33;;;1.42;;
75496;SDS011;64074;47.540;19.072;2023-05-10T16:33:23;2.95;;;1.60;;
75496;SDS011;64074;47.540;19.072;2023-05-10T16:36:47;2.17;;;1.80;;
75496;SDS011;64074;47.540;19.072;2023-05-10T16:40:08;3.45;;;1.80;;
75496;SDS011;64074;47.540;19.072;2023-05-10T16:43:32;2.80;;;1.73;;
75496;SDS011;64074;47.540;19.072;2023-05-10T16:46:54;2.88;;;1.90;;
75496;SDS011;64074;47.540;19.072;2023-05-10T16:50:14;4.25;;;2.10;;
75496;SDS011;64074;47.540;19.072;2023-05-10T16:53:35;4.00;;;2.23;;
75496;SDS011;64074;47.540;19.072;2023-05-10T16:56:56;3.05;;;1.90;;
75496;SDS011;64074;47.540;19.072;2023-05-10T17:00:16;3.25;;;2.03;;
75496;SDS011;64074;47.540;19.072;2023-05-10T17:03:37;4.05;;;2.10;;
75496;SDS011;64074;47.540;19.072;2023-05-10T17:07:04;5.22;;;2.00;;
75496;SDS011;64074;47.540;19.072;2023-05-10T17:10:13;3.77;;;2.27;;
75496;SDS011;64074;47.540;19.072;2023-05-10T17:13:22;2.67;;;2.10;;
75496;SDS011;64074;47.540;19.072;2023-05-10T17:16:36;2.92;;;1.77;;
75496;SDS011;64074;47.540;19.072;2023-05-10T17:19:55;4.10;;;2.08;;
75496;SDS011;64074;47.540;19.072;2023-05-10T17:23:05;4.95;;;2.00;;
75496;SDS011;64074;47.540;19.072;2023-05-10T17:26:30;2.53;;;1.90;;
75496;SDS011;64074;47.540;19.072;2023-05-10T17:29:42;5.10;;;2.22;;
75496;SDS011;64074;47.540;19.072;2023-05-10T17:32:53;3.63;;;2.25;;
75496;SDS011;64074;47.540;19.072;2023-05-10T17:36:01;3.30;;;2.13;;
75496;SDS011;64074;47.540;19.072;2023-05-10T17:39:12;4.50;;;2.08;;
75496;SDS011;64074;47.540;19.072;2023-05-10T17:42:34;2.20;;;2.00;;
75496;SDS011;64074;47.540;19.072;2023-05-10T17:45:40;3.17;;;1.88;;
75496;SDS011;64074;47.540;19.072;2023-05-10T17:48:47;2.75;;;2.00;;
75496;SDS011;64074;47.540;19.072;2023-05-10T17:51:57;3.03;;;1.92;;
75496;SDS011;64074;47.540;19.072;2023-05-10T17:55:19;5.00;;;2.28;;
75496;SDS011;64074;47.540;19.072;2023-05-10T17:58:58;2.80;;;1.80;;
75496;SDS011;64074;47.540;19.072;2023-05-10T18:02:21;5.22;;;2.13;;
75496;SDS011;64074;47.540;19.072;2023-05-10T18:05:30;2.85;;;1.90;;
75496;SDS011;64074;47.540;19.072;2023-05-10T18:08:45;4.70;;;2.08;;
75496;SDS011;64074;47.540;19.072;2023-05-10T18:12:03;3.08;;;2.10;;
75496;SDS011;64074;47.540;19.072;2023-05-10T18:15:28;3.60;;;1.90;;
75496;SDS011;64074;47.540;19.072;2023-05-10T18:18:46;3.55;;;2.00;;
75496;SDS011;64074;47.540;19.072;2023-05-10T18:22:09;4.60;;;1.85;;
75496;SDS011;64074;47.540;19.072;2023-05-10T18:25:41;2.60;;;1.65;;
75496;SDS011;64074;47.540;19.072;2023-05-10T18:28:58;3.92;;;1.75;;
75496;SDS011;64074;47.540;19.072;2023-05-10T18:32:16;3.20;;;1.70;;
75496;SDS011;64074;47.540;19.072;2023-05-10T18:35:47;5.65;;;4.65;;
75496;SDS011;64074;47.540;19.072;2023-05-10T18:39:02;3.17;;;2.08;;
75496;SDS011;64074;47.540;19.072;2023-05-10T18:42:22;2.88;;;1.80;;
75496;SDS011;64074;47.540;19.072;2023-05-10T18:45:47;2.30;;;1.80;;
75496;SDS011;64074;47.540;19.072;2023-05-10T18:49:19;3.13;;;1.63;;
75496;SDS011;64074;47.540;19.072;2023-05-10T18:52:38;4.32;;;2.08;;
75496;SDS011;64074;47.540;19.072;2023-05-10T18:55:56;4.30;;;2.03;;
75496;SDS011;64074;47.540;19.072;2023-05-10T18:59:18;2.53;;;2.00;;
75496;SDS011;64074;47.540;19.072;2023-05-10T19:02:37;2.67;;;1.90;;
75496;SDS011;64074;47.540;19.072;2023-05-10T19:05:55;2.63;;;1.60;;
75496;SDS011;64074;47.540;19.072;2023-05-10T19:08:59;3.22;;;1.90;;
75496;SDS011;64074;47.540;19.072;2023-05-10T19:12:07;3.30;;;2.30;;
75496;SDS011;64074;47.540;19.072;2023-05-10T19:15:11;4.45;;;2.13;;
75496;SDS011;64074;47.540;19.072;2023-05-10T19:18:17;3.88;;;2.05;;
75496;SDS011;64074;47.540;19.072;2023-05-10T19:21:27;3.47;;;2.30;;
75496;SDS011;64074;47.540;19.072;2023-05-10T19:24:36;7.47;;;2.90;;
75496;SDS011;64074;47.540;19.072;2023-05-10T19:27:49;4.03;;;2.78;;
75496;SDS011;64074;47.540;19.072;2023-05-10T19:31:10;4.00;;;2.55;;
75496;SDS011;64074;47.540;19.072;2023-05-10T19:34:34;4.28;;;2.10;;
75496;SDS011;64074;47.540;19.072;2023-05-10T19:37:51;3.83;;;2.43;;
75496;SDS011;64074;47.540;19.072;2023-05-10T19:41:08;4.20;;;2.40;;
75496;SDS011;64074;47.540;19.072;2023-05-10T19:44:21;5.20;;;2.47;;
75496;SDS011;64074;47.540;19.072;2023-05-10T19:47:28;4.60;;;2.47;;
75496;SDS011;64074;47.540;19.072;2023-05-10T19:50:40;5.72;;;2.45;;
75496;SDS011;64074;47.540;19.072;2023-05-10T19:54:19;3.90;;;2.20;;
75496;SDS011;64074;47.540;19.072;2023-05-10T19:57:25;4.10;;;2.03;;
75496;SDS011;64074;47.540;19.072;2023-05-10T20:00:47;2.72;;;1.92;;
75496;SDS011;64074;47.540;19.072;2023-05-10T20:03:58;3.13;;;2.08;;
75496;SDS011;64074;47.540;19.072;2023-05-10T20:07:05;5.25;;;2.17;;
75496;SDS011;64074;47.540;19.072;2023-05-10T20:10:10;4.27;;;2.20;;
75496;SDS011;64074;47.540;19.072;2023-05-10T20:13:21;2.80;;;2.10;;
75496;SDS011;64074;47.540;19.072;2023-05-10T20:16:37;2.40;;;2.20;;
75496;SDS011;64074;47.540;19.072;2023-05-10T20:20:09;3.88;;;1.90;;
75496;SDS011;64074;47.540;19.072;2023-05-10T20:23:28;3.00;;;2.28;;
75496;SDS011;64074;47.540;19.072;2023-05-10T20:26:48;2.73;;;2.17;;